Terminal Aerodrome Forecast
Issued by NWS Bismarck, ND

Home | Current Version | Previous Version | Text Only | Print | Product List | Glossary Off
Versions: 1 2 3 4 5 6 7 8 9 10 11 12 13 14 15 16

000
FTUS43 KBIS 221700
TAFBIS
TAF
KBIS 221720Z 2218/2318 23015KT P6SM BKN120
     FM230100 26007KT P6SM BKN070
     FM231100 30011KT P6SM SCT100=

USA.gov is the U.S. government's official web portal to all federal, state and local government web resources and services.